| Date | Time | Temp. (oF) | Dew Point (oF) | Rel. Hum. (%) | Press. (in.) | Wind Dir. | Wind Speed (mph) | Hourly Rainfall (in.) |
|
|---|---|---|---|---|---|---|---|---|---|
| 1 | 10/28 | 00:00 | 49 | 46 | 91 | 30.10 | W | 1 | 0.00 |
| 2 | 10/27 | 23:00 | 50 | 48 | 93 | 30.10 | WNW | 4 | 0.01 |
| 3 | 10/27 | 22:00 | 52 | 49 | 91 | 30.07 | WNW | 4 | 0.02 |
| 4 | 10/27 | 21:00 | 56 | 54 | 93 | 30.04 | SSE | 4 | 0.00 |
| 5 | 10/27 | 20:00 | 56 | 54 | 93 | 30.05 | WSW | 2 | 0.03 |
| 6 | 10/27 | 19:00 | 56 | 54 | 95 | 30.04 | WSW | 4 | 0.09 |
| 7 | 10/27 | 18:00 | 55 | 52 | 91 | 30.06 | WSW | 0 | 0.02 |
| 8 | 10/27 | 17:00 | 54 | 51 | 92 | 30.08 | WSW | 3 | 0.02 |
| 9 | 10/27 | 16:00 | 52 | 49 | 90 | 30.10 | WSW | 3 | 0.05 |
| 10 | 10/27 | 15:00 | 51 | 46 | 85 | 30.11 | SW | 6 | 0.01 |
| 11 | 10/27 | 14:00 | 50 | 44 | 82 | 30.15 | SW | 6 | 0.00 |
| 12 | 10/27 | 13:00 | 47 | 42 | 84 | 30.18 | SW | 3 | 0.01 |
| 13 | 10/27 | 12:00 | 47 | 39 | 74 | 30.25 | WSW | 4 | 0.00 |
| 14 | 10/27 | 11:00 | 45 | 35 | 69 | 30.28 | SSW | 5 | 0.00 |
| 15 | 10/27 | 10:00 | 44 | 32 | 65 | 30.34 | SSW | 4 | 0.00 |
| 16 | 10/27 | 09:00 | 42 | 30 | 63 | 30.35 | SW | 3 | 0.00 |
| 17 | 10/27 | 08:00 | 41 | 29 | 64 | 30.35 | SW | 6 | 0.00 |
| 18 | 10/27 | 07:00 | 42 | 28 | 59 | 30.36 | SW | 7 | 0.00 |
| 19 | 10/27 | 06:00 | 42 | 28 | 58 | 30.36 | SSW | 7 | 0.00 |
| 20 | 10/27 | 05:00 | 42 | 28 | 58 | 30.37 | SSW | 1 | 0.00 |
| 21 | 10/27 | 04:00 | 43 | 28 | 57 | 30.38 | SSW | 3 | 0.00 |
| 22 | 10/27 | 03:00 | 43 | 27 | 55 | 30.39 | SSW | 3 | 0.00 |
| 23 | 10/27 | 02:00 | 43 | 28 | 56 | 30.41 | SSW | 2 | 0.00 |
| 24 | 10/27 | 01:00 | 43 | 27 | 55 | 30.41 | SSW | 0 | 0.00 |